Time;durP1;ratioP1;P1;durP2;ratioP2;P2;SDS_P1;SDS_P2;PMS_P1;PMS_P2;Temp;Humidity;BMP_temperature;BMP_pressure;BME280_temperature;BME280_humidity;BME280_pressure;Samples;Min_cycle;Max_cycle;Signal;HPM_P1;HPM_P2
2023/04/28 00:01:24;;;;;;;1.05;0.70;;;;;;;;;;6245215;23;20035;-72
2023/04/28 00:03:50;;;;;;;1.98;0.70;;;19.40;84.70;;;;;;6245159;23;20023;-72
2023/04/28 00:06:16;;;;;;;3.72;1.23;;;19.20;84.20;;;;;;6245503;23;20273;-72
2023/04/28 00:08:42;;;;;;;0.85;0.70;;;19.20;84.50;;;;;;6245213;23;19993;-72
2023/04/28 00:11:09;;;;;;;0.80;0.73;;;18.80;84.40;;;;;;6245035;23;20038;-72
2023/04/28 00:13:36;;;;;;;0.80;0.70;;;19.50;66.00;;;;;;6245527;22;19996;-72
2023/04/28 00:16:03;;;;;;;1.35;0.80;;;19.20;84.80;;;;;;6245475;22;20320;-72
2023/04/28 00:18:29;;;;;;;1.90;0.80;;;19.50;84.70;;;;;;6245597;22;20380;-72
2023/04/28 00:20:55;;;;;;;1.58;0.70;;;19.30;49.70;;;;;;6245542;23;20000;-72
2023/04/28 00:23:22;;;;;;;1.05;0.82;;;;;;;;;;6245363;23;20000;-72
2023/04/28 00:25:52;;;;;;;1.55;0.80;;;19.40;81.80;;;;;;6245471;23;20004;-72
2023/04/28 00:28:18;;;;;;;1.77;0.80;;;19.50;84.80;;;;;;6245425;22;19992;-72
2023/04/28 00:30:45;;;;;;;0.55;0.50;;;;;;;;;;6245277;22;20012;-72
2023/04/28 00:33:12;;;;;;;2.60;1.55;;;18.60;51.10;;;;;;6245366;22;20019;-72
2023/04/28 00:35:39;;;;;;;0.68;0.63;;;19.20;84.80;;;;;;6244979;22;20420;-72
2023/04/28 00:38:05;;;;;;;1.13;1.08;;;;;;;;;;6244984;22;19996;-72
2023/04/28 00:40:35;;;;;;;1.27;0.90;;;19.20;47.30;;;;;;6255169;23;20000;-72
2023/04/28 00:43:01;;;;;;;2.17;0.52;;;19.40;84.90;;;;;;6255119;22;20431;-72
2023/04/28 00:45:27;;;;;;;0.80;0.65;;;18.70;84.60;;;;;;6255248;22;20003;-72
2023/04/28 00:47:53;;;;;;;0.80;0.70;;;19.10;84.80;;;;;;6255001;23;20328;-72
2023/04/28 00:50:20;;;;;;;0.95;0.80;;;;;;;;;;6254979;22;20444;-72
2023/04/28 00:52:46;;;;;;;1.55;0.60;;;19.20;52.10;;;;;;6245081;23;20383;-72
2023/04/28 00:55:14;;;;;;;1.30;0.88;;;18.70;78.40;;;;;;6245106;23;19996;-72
2023/04/28 00:57:41;;;;;;;0.80;0.75;;;19.40;85.20;;;;;;6243751;23;20016;-72
2023/04/28 01:00:09;;;;;;;1.15;0.50;;;19.00;66.80;;;;;;6245085;22;20011;-72
2023/04/28 01:02:35;;;;;;;0.77;0.77;;;19.10;84.90;;;;;;6254352;22;20373;-72
2023/04/28 01:05:02;;;;;;;0.70;0.70;;;19.10;55.30;;;;;;6245161;22;20348;-72
2023/04/28 01:07:28;;;;;;;0.63;0.63;;;;;;;;;;6245065;23;20301;-72
2023/04/28 01:09:54;;;;;;;1.13;0.82;;;;;;;;;;6254829;23;20110;-72
2023/04/28 01:12:20;;;;;;;1.10;0.50;;;18.90;84.70;;;;;;6254936;23;19997;-72
2023/04/28 01:14:47;;;;;;;0.75;0.52;;;19.40;85.10;;;;;;6254974;22;20000;-72
2023/04/28 01:17:14;;;;;;;0.88;0.63;;;;;;;;;;6245078;22;20076;-72
2023/04/28 01:19:40;;;;;;;1.00;0.70;;;19.10;77.20;;;;;;6244631;23;20000;-72
2023/04/28 01:22:06;;;;;;;0.50;0.50;;;19.40;82.10;;;;;;6244834;23;20007;-72
2023/04/28 01:24:32;;;;;;;1.30;0.63;;;18.90;84.80;;;;;;6245039;22;19996;-72
2023/04/28 01:26:58;;;;;;;0.90;0.68;;;19.10;85.10;;;;;;6244967;23;20050;-72
2023/04/28 01:29:25;;;;;;;0.77;0.60;;;;;;;;;;6244402;23;20012;-72
2023/04/28 01:31:51;;;;;;;1.10;0.65;;;18.60;70.80;;;;;;6244938;22;20015;-72
2023/04/28 01:34:17;;;;;;;0.63;0.63;;;18.90;84.90;;;;;;6244903;23;20042;-72
2023/04/28 01:36:43;;;;;;;0.85;0.68;;;19.00;84.90;;;;;;6244841;23;20000;-72
2023/04/28 01:39:08;;;;;;;1.33;0.70;;;19.20;84.40;;;;;;6254595;23;20375;-72
2023/04/28 01:41:34;;;;;;;0.88;0.70;;;19.10;85.00;;;;;;6254663;23;19997;-72
2023/04/28 01:44:00;;;;;;;1.10;0.60;;;19.20;80.00;;;;;;6254718;23;20344;-72
2023/04/28 01:46:26;;;;;;;1.45;1.00;;;;;;;;;;6244791;23;20094;-72
2023/04/28 01:48:52;;;;;;;1.23;1.13;;;;;;;;;;6254755;22;20023;-72
2023/04/28 01:51:17;;;;;;;1.42;0.80;;;19.30;64.70;;;;;;6254584;23;20011;-72
2023/04/28 01:53:43;;;;;;;2.30;0.98;;;;;;;;;;6254765;23;19996;-72
2023/04/28 01:56:09;;;;;;;1.00;0.63;;;;;;;;;;6254486;23;20046;-72
2023/04/28 01:58:35;;;;;;;0.68;0.50;;;;;;;;;;6254740;23;20045;-72
2023/04/28 02:01:01;;;;;;;0.63;0.63;;;;;;;;;;6244779;23;20000;-72
2023/04/28 02:03:27;;;;;;;1.02;0.70;;;;;;;;;;6244231;23;20008;-72
2023/04/28 02:05:54;;;;;;;0.60;0.60;;;19.00;51.90;;;;;;6254534;23;20014;-72
2023/04/28 02:08:19;;;;;;;1.00;0.60;;;18.80;59.10;;;;;;6254457;23;19999;-72
2023/04/28 02:10:46;;;;;;;0.77;0.70;;;;;;;;;;6254433;23;20083;-72
2023/04/28 02:13:12;;;;;;;0.95;0.77;;;;;;;;;;6244740;23;20001;-72
2023/04/28 02:15:41;;;;;;;1.02;0.77;;;19.00;47.60;;;;;;6256499;23;20394;-72
2023/04/28 02:18:07;;;;;;;1.50;0.70;;;18.80;84.90;;;;;;6246764;22;19996;-72
2023/04/28 02:20:33;;;;;;;0.70;0.70;;;19.20;85.20;;;;;;6256585;22;20313;-72
2023/04/28 02:22:58;;;;;;;1.45;0.60;;;19.00;85.00;;;;;;6246652;23;19992;-72
2023/04/28 02:25:24;;;;;;;0.82;0.65;;;19.20;85.10;;;;;;6256400;23;20015;-73
2023/04/28 02:27:51;;;;;;;0.82;0.63;;;;;;;;;;6246648;22;19993;-72
2023/04/28 02:30:17;;;;;;;1.25;0.68;;;19.20;85.20;;;;;;6246595;22;20012;-72
2023/04/28 02:32:43;;;;;;;0.65;0.50;;;19.20;85.10;;;;;;6246180;23;20003;-72
2023/04/28 02:35:09;;;;;;;1.02;0.88;;;;;;;;;;6246540;23;19997;-72
2023/04/28 02:37:36;;;;;;;1.48;0.88;;;;;;;;;;6246396;23;20030;-72
2023/04/28 02:40:02;;;;;;;1.38;0.60;;;19.00;85.10;;;;;;6246474;23;20054;-72
2023/04/28 02:42:28;;;;;;;0.82;0.60;;;18.70;84.90;;;;;;6246024;22;19993;-72
2023/04/28 02:44:54;;;;;;;0.60;0.60;;;19.10;85.20;;;;;;6246519;23;20007;-73
2023/04/28 02:47:20;;;;;;;0.85;0.57;;;19.10;85.40;;;;;;6246363;23;20027;-73
2023/04/28 02:49:46;;;;;;;1.05;0.70;;;18.80;85.10;;;;;;6246267;23;20012;-73
2023/04/28 02:52:12;;;;;;;0.82;0.50;;;;;;;;;;6246294;23;19993;-72
2023/04/28 02:54:38;;;;;;;1.10;0.73;;;18.80;85.20;;;;;;6246197;23;20075;-72
2023/04/28 02:57:04;;;;;;;1.02;0.68;;;18.70;85.00;;;;;;6246300;23;20023;-72
2023/04/28 02:59:31;;;;;;;1.10;0.68;;;18.70;59.60;;;;;;6246244;22;19996;-72
2023/04/28 03:01:57;;;;;;;1.02;0.68;;;18.80;85.10;;;;;;6245826;22;19996;-73
2023/04/28 03:04:23;;;;;;;0.93;0.73;;;18.80;85.30;;;;;;6245737;23;20008;-72
2023/04/28 03:06:49;;;;;;;0.93;0.70;;;18.90;85.20;;;;;;6246295;23;20000;-72
2023/04/28 03:09:16;;;;;;;1.00;0.60;;;;;;;;;;6245814;22;20431;-72
2023/04/28 03:11:42;;;;;;;1.95;0.93;;;19.10;77.60;;;;;;6245773;23;20085;-72
2023/04/28 03:14:08;;;;;;;0.68;0.50;;;;;;;;;;6246182;23;19996;-73
2023/04/28 03:16:35;;;;;;;1.02;0.70;;;;;;;;;;6246084;23;20050;-72
2023/04/28 03:19:01;;;;;;;1.38;0.60;;;19.00;85.40;;;;;;6246262;22;20327;-72
2023/04/28 03:21:27;;;;;;;0.70;0.52;;;18.70;85.10;;;;;;6245696;23;19992;-72
2023/04/28 03:23:54;;;;;;;0.70;0.55;;;;;;;;;;6245792;22;20462;-72
2023/04/28 03:26:20;;;;;;;1.35;0.93;;;19.00;79.20;;;;;;6245363;23;20000;-72
2023/04/28 03:28:46;;;;;;;1.73;0.60;;;18.70;85.40;;;;;;6245618;22;20462;-72
2023/04/28 03:31:12;;;;;;;1.13;0.70;;;;;;;;;;6245374;23;20004;-72
2023/04/28 03:33:39;;;;;;;1.20;0.55;;;;;;;;;;6245931;23;20004;-72
2023/04/28 03:36:05;;;;;;;0.73;0.70;;;;;;;;;;6245530;23;20008;-72
2023/04/28 03:38:32;;;;;;;1.40;0.63;;;;;;;;;;6245825;23;20007;-72
2023/04/28 03:40:58;;;;;;;0.77;0.50;;;18.70;85.30;;;;;;6245961;23;19996;-72
2023/04/28 03:43:24;;;;;;;0.82;0.75;;;18.70;84.70;;;;;;6245553;23;20030;-72
2023/04/28 03:45:50;;;;;;;1.13;0.70;;;18.60;85.00;;;;;;6245376;23;20003;-72
2023/04/28 03:48:16;;;;;;;1.63;0.98;;;18.50;85.20;;;;;;6245467;23;19996;-72
2023/04/28 03:50:44;;;;;;;1.25;0.52;;;18.60;85.10;;;;;;6245681;23;20022;-72
2023/04/28 03:53:10;;;;;;;1.42;0.70;;;18.70;76.10;;;;;;6245806;22;20006;-72
2023/04/28 03:55:36;;;;;;;0.50;0.50;;;18.90;85.60;;;;;;6245451;22;20023;-72
2023/04/28 03:58:02;;;;;;;0.80;0.60;;;18.90;85.60;;;;;;6245844;23;20004;-72
2023/04/28 04:00:29;;;;;;;1.05;0.73;;;18.60;85.50;;;;;;6245823;23;19996;-73
2023/04/28 04:02:55;;;;;;;1.33;0.90;;;19.00;85.80;;;;;;6245456;23;20373;-72
2023/04/28 04:05:21;;;;;;;1.13;0.57;;;;;;;;;;6245757;22;20063;-73
2023/04/28 04:07:48;;;;;;;1.95;0.60;;;;;;;;;;6245188;22;20000;-72
2023/04/28 04:10:14;;;;;;;1.15;0.80;;;18.80;85.50;;;;;;6245408;23;20012;-72
2023/04/28 04:12:41;;;;;;;1.90;0.93;;;;;;;;;;6245629;22;19992;-72
2023/04/28 04:15:07;;;;;;;0.70;0.70;;;;;;;;;;6245241;23;20007;-72
2023/04/28 04:17:33;;;;;;;0.95;0.80;;;18.60;70.40;;;;;;6255351;23;19996;-72
2023/04/28 04:19:59;;;;;;;1.25;0.95;;;;;;;;;;6255500;23;20000;-72
2023/04/28 04:22:24;;;;;;;0.63;0.60;;;18.60;69.90;;;;;;6245448;23;19997;-72
2023/04/28 04:24:50;;;;;;;1.00;0.63;;;18.70;79.90;;;;;;6245459;23;20458;-72
2023/04/28 04:27:16;;;;;;;1.02;0.75;;;18.80;78.60;;;;;;6245404;22;20020;-74
2023/04/28 04:29:42;;;;;;;1.25;0.80;;;;;;;;;;6255172;23;20057;-72
2023/04/28 04:32:08;;;;;;;1.00;0.90;;;;;;;;;;6255175;23;20327;-72
2023/04/28 04:34:34;;;;;;;1.33;0.93;;;;;;;;;;6255227;23;20023;-72
2023/04/28 04:37:00;;;;;;;0.93;0.50;;;;;;;;;;6254763;23;20072;-72
2023/04/28 04:39:26;;;;;;;1.95;0.70;;;;;;;;;;6255268;23;20000;-72
2023/04/28 04:41:52;;;;;;;0.90;0.80;;;;;;;;;;6255169;23;20007;-72
2023/04/28 04:44:18;;;;;;;0.98;0.90;;;;;;;;;;6255217;23;20003;-72
2023/04/28 04:46:44;;;;;;;1.25;1.15;;;;;;;;;;6255005;23;20004;-72
2023/04/28 04:49:10;;;;;;;0.80;0.80;;;18.30;86.00;;;;;;6254981;22;19992;-72
2023/04/28 04:51:36;;;;;;;1.17;1.17;;;18.60;86.20;;;;;;6244835;22;20098;-72
2023/04/28 04:54:02;;;;;;;1.25;1.25;;;18.60;67.90;;;;;;6255063;23;20023;-72
2023/04/28 04:56:28;;;;;;;1.77;1.67;;;;;;;;;;6255059;23;20305;-72
2023/04/28 04:58:53;;;;;;;2.30;2.10;;;;;;;;;;6255067;23;20396;-72
2023/04/28 05:01:19;;;;;;;2.45;2.33;;;;;;;;;;6254970;23;20028;-72
2023/04/28 05:03:46;;;;;;;3.00;2.80;;;;;;;;;;6244716;23;20083;-72
2023/04/28 05:06:12;;;;;;;3.60;3.40;;;18.60;86.50;;;;;;6245025;23;20019;-72
2023/04/28 05:08:38;;;;;;;3.70;3.50;;;18.70;86.80;;;;;;6244617;23;20435;-72
2023/04/28 05:11:04;;;;;;;4.07;3.80;;;18.60;86.80;;;;;;6244915;23;20004;-72
2023/04/28 05:13:30;;;;;;;4.45;4.15;;;;;;;;;;6245126;23;20362;-75
2023/04/28 05:15:56;;;;;;;4.90;4.63;;;18.30;69.50;;;;;;6245211;23;20004;-75
2023/04/28 05:18:22;;;;;;;5.70;5.20;;;19.00;87.30;;;;;;6245183;23;20046;-76
2023/04/28 05:20:48;;;;;;;5.78;5.47;;;18.90;87.10;;;;;;6245041;23;20006;-77
2023/04/28 05:23:14;;;;;;;6.35;5.95;;;18.30;86.80;;;;;;6244748;23;19992;-76
2023/04/28 05:25:41;;;;;;;6.72;6.22;;;;;;;;;;6244984;23;20067;-77
2023/04/28 05:28:09;;;;;;;6.85;5.68;;;18.70;55.80;;;;;;6254945;23;20423;-76
2023/04/28 05:30:35;;;;;;;6.10;5.70;;;18.50;86.90;;;;;;6254885;23;20039;-76
2023/04/28 05:33:01;;;;;;;5.20;4.90;;;;;;;;;;6254913;23;19992;-76
2023/04/28 05:35:27;;;;;;;5.75;5.32;;;18.70;87.10;;;;;;6244546;23;20019;-76
2023/04/28 05:37:53;;;;;;;5.88;4.88;;;18.60;87.00;;;;;;6245056;23;19993;-76
2023/04/28 05:40:19;;;;;;;4.88;4.50;;;18.80;87.30;;;;;;6244723;23;20023;-75
2023/04/28 05:42:45;;;;;;;4.40;4.10;;;;;;;;;;6244966;23;19996;-75
2023/04/28 05:45:12;;;;;;;4.63;4.32;;;;;;;;;;6244771;23;20012;-75
2023/04/28 05:47:38;;;;;;;4.25;3.95;;;18.90;87.00;;;;;;6244517;23;19996;-76
2023/04/28 05:50:04;;;;;;;4.13;3.72;;;18.40;86.60;;;;;;6246155;23;20004;-75
2023/04/28 05:52:30;;;;;;;4.38;4.03;;;18.60;87.20;;;;;;6247262;22;20071;-76
2023/04/28 05:54:56;;;;;;;3.28;3.08;;;18.70;87.40;;;;;;6247150;22;20024;-76
2023/04/28 05:57:22;;;;;;;2.75;2.58;;;18.50;87.30;;;;;;6256944;22;20071;-76
2023/04/28 05:59:48;;;;;;;2.78;2.50;;;18.60;72.20;;;;;;6256795;23;20432;-76
2023/04/28 06:02:14;;;;;;;2.70;2.50;;;;;;;;;;6256735;23;20070;-76
2023/04/28 06:04:40;;;;;;;3.15;2.95;;;;;;;;;;6246544;23;20012;-76
2023/04/28 06:07:07;;;;;;;2.20;2.10;;;18.40;87.40;;;;;;6246966;23;20079;-76
2023/04/28 06:09:32;;;;;;;1.85;1.75;;;18.70;87.50;;;;;;6254764;23;20040;-72
2023/04/28 06:11:58;;;;;;;2.33;2.22;;;18.70;71.00;;;;;;6246745;23;20008;-73
2023/04/28 06:14:24;;;;;;;2.38;2.17;;;18.60;87.20;;;;;;6256637;23;19996;-72
2023/04/28 06:16:50;;;;;;;2.03;1.90;;;18.60;52.50;;;;;;6246911;22;20476;-72
2023/04/28 06:19:17;;;;;;;2.00;1.83;;;;;;;;;;6256428;22;20004;-72
2023/04/28 06:21:44;;;;;;;1.88;1.65;;;18.70;87.40;;;;;;6256571;22;19992;-72
2023/04/28 06:24:10;;;;;;;1.58;1.48;;;;;;;;;;6256176;22;20050;-72
2023/04/28 06:26:36;;;;;;;1.55;1.45;;;18.30;78.20;;;;;;6246120;23;20000;-72
2023/04/28 06:29:02;;;;;;;1.40;1.25;;;18.80;53.70;;;;;;6246408;23;20007;-72
2023/04/28 06:31:28;;;;;;;1.20;1.17;;;18.90;87.40;;;;;;6246325;22;20079;-72
2023/04/28 06:33:55;;;;;;;1.20;1.10;;;;;;;;;;6246137;23;20494;-72
2023/04/28 06:36:21;;;;;;;1.17;1.00;;;;;;;;;;6246122;23;20004;-73
2023/04/28 06:38:47;;;;;;;0.82;0.82;;;;;;;;;;6246171;23;20003;-72
2023/04/28 06:41:13;;;;;;;1.10;1.00;;;18.90;87.40;;;;;;6256359;23;20008;-72
2023/04/28 06:43:38;;;;;;;1.05;0.95;;;18.80;87.20;;;;;;6256282;23;20000;-72
2023/04/28 06:46:04;;;;;;;1.80;1.30;;;18.20;80.00;;;;;;6256284;23;19996;-73
2023/04/28 06:48:30;;;;;;;0.95;0.95;;;;;;;;;;6256273;22;20439;-73
2023/04/28 06:50:56;;;;;;;2.30;0.98;;;18.80;87.40;;;;;;6246454;22;20019;-73
2023/04/28 06:53:22;;;;;;;0.75;0.75;;;18.60;87.20;;;;;;6244941;23;19997;-73
2023/04/28 06:55:48;;;;;;;1.10;1.00;;;;;;;;;;6246379;23;20106;-73
2023/04/28 06:58:15;;;;;;;1.02;0.93;;;18.60;87.30;;;;;;6246347;23;19996;-72
2023/04/28 07:00:41;;;;;;;1.10;0.88;;;18.90;87.50;;;;;;6245790;22;20031;-73
2023/04/28 07:03:07;;;;;;;1.83;0.80;;;;;;;;;;6245654;23;20004;-73
2023/04/28 07:05:33;;;;;;;1.00;0.90;;;18.90;87.50;;;;;;6246374;23;20336;-75
2023/04/28 07:08:00;;;;;;;1.42;1.13;;;;;;;;;;6246260;22;20003;-73
2023/04/28 07:10:26;;;;;;;1.05;0.95;;;18.90;72.50;;;;;;6245918;23;20317;-72
2023/04/28 07:12:52;;;;;;;2.60;1.30;;;;;;;;;;6246252;23;20331;-73
2023/04/28 07:15:18;;;;;;;1.23;1.00;;;18.70;76.70;;;;;;6246278;23;19997;-73
2023/04/28 07:17:44;;;;;;;0.90;0.80;;;18.60;67.00;;;;;;6246191;23;20015;-72
2023/04/28 07:20:11;;;;;;;2.97;1.10;;;18.50;87.50;;;;;;6245883;23;19992;-73
2023/04/28 07:22:37;;;;;;;1.10;0.80;;;18.70;87.40;;;;;;6245823;22;20443;-74
2023/04/28 07:25:04;;;;;;;0.82;0.82;;;18.80;87.70;;;;;;6256247;22;20020;-73
2023/04/28 07:27:30;;;;;;;1.20;0.88;;;18.90;67.20;;;;;;6246156;22;20075;-73
2023/04/28 07:29:56;;;;;;;2.33;1.13;;;;;;;;;;6256010;23;20089;-73
2023/04/28 07:32:22;;;;;;;1.77;0.98;;;;;;;;;;6255954;23;20524;-73
2023/04/28 07:34:49;;;;;;;3.47;1.00;;;19.00;87.40;;;;;;6245955;22;19996;-73
2023/04/28 07:37:15;;;;;;;1.73;1.15;;;18.80;87.50;;;;;;6255837;23;20050;-73
2023/04/28 07:39:41;;;;;;;2.83;1.50;;;;;;;;;;6255891;22;20301;-73
2023/04/28 07:42:07;;;;;;;1.40;1.08;;;18.70;87.50;;;;;;6245992;23;20053;-73
2023/04/28 07:44:34;;;;;;;1.48;1.10;;;;;;;;;;6245934;22;20103;-73
2023/04/28 07:47:00;;;;;;;1.58;1.20;;;18.70;63.60;;;;;;6245877;23;20383;-70
2023/04/28 07:49:27;;;;;;;1.73;1.20;;;18.60;75.90;;;;;;6245807;22;20054;-74
2023/04/28 07:51:55;;;;;;;3.17;1.52;;;;;;;;;;6252739;22;20419;-73
2023/04/28 07:54:22;;;;;;;1.75;1.08;;;19.60;54.90;;;;;;6245868;22;20019;-72
2023/04/28 07:56:48;;;;;;;1.33;1.23;;;18.70;68.70;;;;;;6245861;22;20003;-74
2023/04/28 07:59:14;;;;;;;1.65;1.25;;;18.40;87.30;;;;;;6245964;22;19996;-76
2023/04/28 08:01:41;;;;;;;2.08;1.80;;;18.80;87.50;;;;;;6245864;22;20027;-72
2023/04/28 08:04:08;;;;;;;3.80;1.70;;;;;;;;;;6245303;22;20013;-75
2023/04/28 08:06:35;;;;;;;1.50;1.40;;;;;;;;;;6255636;23;20073;-75
2023/04/28 08:09:01;;;;;;;1.85;1.00;;;19.00;87.80;;;;;;6255653;22;20023;-75
2023/04/28 08:11:27;;;;;;;1.63;1.30;;;18.60;87.70;;;;;;6255522;22;20004;-75
2023/04/28 08:13:53;;;;;;;1.88;0.93;;;;;;;;;;6255528;23;20015;-74
2023/04/28 08:16:19;;;;;;;0.80;0.73;;;18.90;87.90;;;;;;6245730;23;20055;-74
2023/04/28 08:18:45;;;;;;;2.80;1.25;;;18.70;87.70;;;;;;6245759;22;19998;-73
2023/04/28 08:21:12;;;;;;;1.33;0.98;;;;;;;;;;6245631;22;20396;-73
2023/04/28 08:23:38;;;;;;;1.75;0.90;;;18.30;85.80;;;;;;6245602;23;20046;-73
2023/04/28 08:26:04;;;;;;;1.95;1.70;;;;;;;;;;6245135;23;20004;-73
2023/04/28 08:28:32;;;;;;;1.65;0.85;;;;;;;;;;6255375;23;19997;-73
2023/04/28 08:30:59;;;;;;;2.42;1.98;;;;;;;;;;6255189;22;20008;-72
2023/04/28 08:33:26;;;;;;;3.88;1.55;;;;;;;;;;6245424;23;19996;-73
2023/04/28 08:35:53;;;;;;;2.30;1.50;;;18.80;88.20;;;;;;6245306;22;20004;-73
2023/04/28 08:38:22;;;;;;;1.88;1.52;;;;;;;;;;6245487;22;19992;-73
2023/04/28 08:40:48;;;;;;;2.92;1.10;;;;;;;;;;6255264;22;20000;-73
2023/04/28 08:43:15;;;;;;;3.03;1.60;;;;;;;;;;6260432;23;20000;-73
2023/04/28 08:45:43;;;;;;;1.67;1.50;;;18.80;55.10;;;;;;6245967;22;20007;-74
2023/04/28 08:48:20;;;;;;;2.97;1.30;;;18.80;50.90;;;;;;6243827;23;20087;-76
2023/04/28 08:50:52;;;;;;;3.47;1.10;;;18.80;55.20;;;;;;6255176;22;20446;-73
2023/04/28 08:53:24;;;;;;;1.65;1.08;;;18.90;78.60;;;;;;6244912;22;20003;-74
2023/04/28 08:55:57;;;;;;;1.50;1.40;;;18.90;51.00;;;;;;6255210;22;20003;-73
2023/04/28 08:58:24;;;;;;;2.17;1.38;;;18.90;55.20;;;;;;6255253;22;20023;-79
2023/04/28 09:00:51;;;;;;;1.60;1.13;;;18.80;55.20;;;;;;6255130;22;20075;-79
2023/04/28 09:03:17;;;;;;;2.00;1.85;;;;;;;;;;6244920;22;20008;-79
2023/04/28 09:05:43;;;;;;;1.67;0.98;;;18.80;88.30;;;;;;6245103;22;20011;-79
2023/04/28 09:08:11;;;;;;;3.42;1.50;;;19.00;88.50;;;;;;6244817;23;19999;-81
2023/04/28 09:10:37;;;;;;;1.50;1.40;;;18.90;88.60;;;;;;6244731;22;20439;-78
2023/04/28 09:13:04;;;;;;;2.20;1.92;;;;;;;;;;6244795;22;20458;-74
2023/04/28 09:15:29;;;;;;;3.78;2.50;;;19.00;88.60;;;;;;6255035;22;20000;-78
2023/04/28 09:17:55;;;;;;;2.50;2.10;;;18.50;88.40;;;;;;6255015;22;20516;-78
2023/04/28 09:20:23;;;;;;;2.70;2.20;;;19.10;67.80;;;;;;6255225;22;20000;-77
2023/04/28 09:22:50;;;;;;;1.73;1.38;;;18.90;54.30;;;;;;6244764;22;20026;-77
2023/04/28 09:25:17;;;;;;;2.58;1.83;;;18.80;76.40;;;;;;6244820;22;20020;-78
2023/04/28 09:27:44;;;;;;;2.13;1.38;;;;;;;;;;6244689;22;19996;-77
2023/04/28 09:30:11;;;;;;;1.95;1.70;;;18.70;86.50;;;;;;6243253;23;20019;-77
2023/04/28 09:32:37;;;;;;;2.78;1.83;;;19.00;88.90;;;;;;6218402;23;20023;-77
2023/04/28 09:35:03;;;;;;;2.60;1.63;;;18.80;88.80;;;;;;6217829;23;20000;-78
2023/04/28 09:37:33;;;;;;;2.25;1.40;;;18.90;56.20;;;;;;6218419;23;20024;-76
2023/04/28 09:40:12;;;;;;;2.72;2.30;;;19.00;56.50;;;;;;6244743;22;20008;-78
2023/04/28 09:42:43;;;;;;;2.22;1.70;;;18.80;88.80;;;;;;6244484;22;20019;-77
2023/04/28 09:45:12;;;;;;;2.70;1.98;;;18.90;56.10;;;;;;6243383;23;20071;-77
2023/04/28 09:47:45;;;;;;;1.67;1.40;;;18.90;56.00;;;;;;6243252;23;20005;-77
2023/04/28 09:50:13;;;;;;;3.15;1.90;;;18.60;88.90;;;;;;6218079;23;20099;-77
2023/04/28 09:52:47;;;;;;;2.20;1.55;;;18.90;52.00;;;;;;6244501;22;19993;-72
2023/04/28 09:55:14;;;;;;;1.80;1.45;;;18.80;54.20;;;;;;6244240;22;20024;-72
2023/04/28 09:57:40;;;;;;;1.92;1.73;;;;;;;;;;6244764;22;19996;-70
2023/04/28 10:00:08;;;;;;;2.13;1.48;;;18.80;85.90;;;;;;6242884;23;20015;-72
2023/04/28 10:02:35;;;;;;;1.85;1.75;;;17.60;55.80;;;;;;6244348;22;20020;-72
2023/04/28 10:05:07;;;;;;;2.17;1.60;;;18.70;89.60;;;;;;6244688;22;20445;-71
2023/04/28 10:07:34;;;;;;;1.40;1.30;;;;;;;;;;6244637;22;20016;-73
2023/04/28 10:10:01;;;;;;;2.33;1.63;;;19.00;55.40;;;;;;6244598;22;20008;-72
2023/04/28 10:12:28;;;;;;;1.98;1.42;;;;;;;;;;6244488;22;19996;-71
2023/04/28 10:14:55;;;;;;;2.65;1.67;;;;;;;;;;6244519;23;20047;-72
2023/04/28 10:17:24;;;;;;;2.40;1.92;;;;;;;;;;6244338;22;20011;-74
2023/04/28 10:19:52;;;;;;;1.95;1.30;;;19.00;57.10;;;;;;6244511;22;20053;-72
2023/04/28 10:22:31;;;;;;;1.80;1.70;;;19.20;81.20;;;;;;6244021;22;19992;-72
2023/04/28 10:25:06;;;;;;;1.95;1.48;;;18.90;64.80;;;;;;6244469;22;20075;-72
2023/04/28 10:27:33;;;;;;;2.33;1.58;;;18.50;57.10;;;;;;6244444;23;20000;-70
2023/04/28 10:30:20;;;;;;;1.95;1.75;;;19.10;53.00;;;;;;6244478;22;20028;-72
2023/04/28 10:32:46;;;;;;;2.38;2.10;;;18.90;90.10;;;;;;6244463;22;19996;-75
2023/04/28 10:35:24;;;;;;;1.50;1.40;;;19.10;52.80;;;;;;6245483;22;19996;-72
2023/04/28 10:38:09;;;;;;;2.60;1.52;;;19.10;52.80;;;;;;6256316;22;20443;-72
2023/04/28 10:40:37;;;;;;;2.03;1.52;;;19.00;90.00;;;;;;6246399;22;19996;-71
2023/04/28 10:43:04;;;;;;;2.97;1.33;;;18.90;79.60;;;;;;6246045;22;20000;-71
2023/04/28 10:45:51;;;;;;;3.38;1.85;;;19.10;53.10;;;;;;6245952;22;19996;-71
2023/04/28 10:48:19;;;;;;;1.60;1.50;;;19.10;56.90;;;;;;6246286;23;20020;-71
2023/04/28 10:51:04;;;;;;;1.95;1.75;;;18.90;72.60;;;;;;6246194;22;20332;-71
2023/04/28 10:53:44;;;;;;;1.70;1.40;;;19.10;53.50;;;;;;6256067;22;20000;-71
2023/04/28 10:56:10;;;;;;;1.35;1.10;;;19.30;78.70;;;;;;6255695;22;20073;-71
2023/04/28 10:58:44;;;;;;;1.77;1.33;;;19.10;55.20;;;;;;6245241;22;20004;-71
2023/04/28 11:01:19;;;;;;;1.77;1.40;;;18.80;88.40;;;;;;6245681;22;20000;-71
2023/04/28 11:03:46;;;;;;;4.70;1.70;;;;;;;;;;6245407;22;20012;-71
2023/04/28 11:06:25;;;;;;;2.97;1.35;;;19.20;53.60;;;;;;6253536;23;20015;-71
2023/04/28 11:08:52;;;;;;;2.03;1.27;;;19.20;90.10;;;;;;6244716;22;20006;-71
2023/04/28 11:11:24;;;;;;;1.63;1.17;;;19.20;57.80;;;;;;6245706;22;20015;-71
2023/04/28 11:14:09;;;;;;;3.42;0.98;;;19.20;58.00;;;;;;6243945;22;19993;-71
2023/04/28 11:16:54;;;;;;;1.65;1.00;;;19.20;58.00;;;;;;6245701;23;20015;-72
2023/04/28 11:19:23;;;;;;;1.70;0.98;;;19.20;58.10;;;;;;6245335;22;19992;-73
2023/04/28 11:21:51;;;;;;;1.60;1.02;;;19.50;90.60;;;;;;6245389;22;19996;-72
2023/04/28 11:24:17;;;;;;;2.20;0.90;;;19.40;81.70;;;;;;6255632;22;20012;-71
2023/04/28 11:26:43;;;;;;;3.08;1.02;;;;;;;;;;6255478;23;20023;-71
2023/04/28 11:29:10;;;;;;;3.53;0.95;;;18.70;90.40;;;;;;6255596;23;20501;-71
2023/04/28 11:31:37;;;;;;;3.85;1.00;;;19.40;71.60;;;;;;6245169;22;20019;-71
2023/04/28 11:34:21;;;;;;;3.35;0.98;;;19.30;90.60;;;;;;6255685;22;20063;-71
2023/04/28 11:36:47;;;;;;;1.60;0.60;;;;;;;;;;6255600;22;19996;-71
2023/04/28 11:39:14;;;;;;;3.63;1.00;;;19.30;90.60;;;;;;6245610;23;20019;-71
2023/04/28 11:41:45;;;;;;;1.30;0.80;;;19.20;58.10;;;;;;6255548;22;19996;-71
2023/04/28 11:44:15;;;;;;;2.25;0.82;;;19.10;53.90;;;;;;6245583;22;20019;-72
2023/04/28 11:46:49;;;;;;;3.08;0.60;;;19.50;90.80;;;;;;6245227;22;20355;-72
2023/04/28 11:49:16;;;;;;;1.52;0.70;;;19.50;90.80;;;;;;6245207;22;20410;-72
2023/04/28 11:51:44;;;;;;;0.95;0.55;;;;;;;;;;6245197;22;20027;-72
2023/04/28 11:54:13;;;;;;;2.60;0.80;;;19.60;90.80;;;;;;6245046;22;20000;-72
2023/04/28 11:56:43;;;;;;;1.13;0.50;;;19.40;69.70;;;;;;6245406;22;20000;-72
2023/04/28 11:59:10;;;;;;;;;;;19.20;59.10;;;;;;6246060;22;19992;-71
2023/04/28 12:01:50;;;;;;;1.52;0.60;;;19.30;54.20;;;;;;6244924;22;20345;-72
2023/04/28 12:04:41;;;;;;;1.80;0.50;;;19.10;81.40;;;;;;6254963;22;20392;-72
2023/04/28 12:07:16;;;;;;;;;;;19.30;55.00;;;;;;6245824;22;20305;-72
2023/04/28 12:09:48;;;;;;;1.27;0.40;;;19.30;54.20;;;;;;6245376;22;19903;-71
2023/04/28 12:12:17;;;;;;;0.57;0.50;;;19.20;58.40;;;;;;6255049;22;20057;-72
2023/04/28 12:14:57;;;;;;;1.50;0.40;;;19.30;54.30;;;;;;6245543;22;19996;-72
2023/04/28 12:17:28;;;;;;;1.33;0.50;;;19.10;87.20;;;;;;6245223;22;20007;-71
2023/04/28 12:19:58;;;;;;;0.40;0.22;;;19.10;64.80;;;;;;6245157;22;20000;-71
2023/04/28 12:22:25;;;;;;;1.67;0.50;;;;;;;;;;6244762;22;20428;-72
2023/04/28 12:25:08;;;;;;;1.30;0.40;;;19.20;90.80;;;;;;6244950;23;20000;-72
2023/04/28 12:27:38;;;;;;;0.47;0.38;;;19.50;90.70;;;;;;6244994;22;20370;-71
2023/04/28 12:30:23;;;;;;;0.95;0.30;;;19.30;72.60;;;;;;6245025;22;20008;-72
2023/04/28 12:32:50;;;;;;;1.10;0.45;;;;;;;;;;6244583;22;19992;-72
2023/04/28 12:35:16;;;;;;;0.77;0.52;;;19.60;74.70;;;;;;6244684;23;20004;-71
2023/04/28 12:37:43;;;;;;;0.88;0.40;;;19.10;87.90;;;;;;6244740;22;20007;-72
2023/04/28 12:40:10;;;;;;;0.93;0.30;;;19.40;90.90;;;;;;6244810;22;20014;-72
2023/04/28 12:42:37;;;;;;;3.13;1.27;;;;;;;;;;6245163;22;20319;-72
2023/04/28 12:45:04;;;;;;;1.25;0.30;;;19.30;90.90;;;;;;6244698;22;20028;-72
2023/04/28 12:47:31;;;;;;;0.98;0.40;;;;;;;;;;6245256;22;19996;-71
2023/04/28 12:49:57;;;;;;;0.52;0.40;;;;;;;;;;6254629;23;20040;-72
2023/04/28 12:52:22;;;;;;;0.93;0.85;;;19.40;91.10;;;;;;6255368;23;20003;-71
2023/04/28 12:54:48;;;;;;;0.40;0.30;;;21.90;58.90;;;;;;6254904;23;20165;-71
2023/04/28 12:57:16;;;;;;;0.95;0.50;;;19.40;87.00;;;;;;6254771;22;19996;-72
2023/04/28 12:59:43;;;;;;;0.85;0.40;;;;;;;;;;6244464;22;20050;-72
2023/04/28 13:02:09;;;;;;;1.77;0.40;;;19.00;91.00;;;;;;6244521;23;20027;-72
2023/04/28 13:04:36;;;;;;;2.17;0.40;;;;;;;;;;6244269;22;20031;-72
2023/04/28 13:07:02;;;;;;;0.82;0.40;;;;;;;;;;6244661;23;20007;-71
2023/04/28 13:09:28;;;;;;;3.97;0.40;;;19.30;91.10;;;;;;6244634;23;20000;-72
2023/04/28 13:11:54;;;;;;;2.88;0.43;;;19.40;75.60;;;;;;6254618;23;20075;-72
2023/04/28 13:14:21;;;;;;;0.45;0.20;;;;;;;;;;6242726;23;19992;-72
2023/04/28 13:16:47;;;;;;;0.50;0.30;;;19.20;91.00;;;;;;6244659;23;20023;-72
2023/04/28 13:19:13;;;;;;;0.70;0.30;;;;;;;;;;6254485;22;20046;-71
2023/04/28 13:21:42;;;;;;;0.45;0.30;;;19.20;60.40;;;;;;6244275;22;20036;-72